sensor_id;sensor_type;location;lat;lon;timestamp;P1;durP1;ratioP1;P2;durP2;ratioP2
12818;SDS011;6474;53.474;9.894;2022-11-12T00:01:03;3.20;;;2.83;;
12818;SDS011;6474;53.474;9.894;2022-11-12T00:03:31;3.00;;;2.83;;
12818;SDS011;6474;53.474;9.894;2022-11-12T00:05:59;2.70;;;2.50;;
12818;SDS011;6474;53.474;9.894;2022-11-12T00:08:29;2.80;;;2.60;;
12818;SDS011;6474;53.474;9.894;2022-11-12T00:10:58;2.47;;;2.27;;
12818;SDS011;6474;53.474;9.894;2022-11-12T00:13:28;3.10;;;2.90;;
12818;SDS011;6474;53.474;9.894;2022-11-12T00:15:55;2.20;;;2.10;;
12818;SDS011;6474;53.474;9.894;2022-11-12T00:18:23;2.50;;;2.40;;
12818;SDS011;6474;53.474;9.894;2022-11-12T00:20:51;2.77;;;2.67;;
12818;SDS011;6474;53.474;9.894;2022-11-12T00:23:20;6.30;;;3.27;;
12818;SDS011;6474;53.474;9.894;2022-11-12T00:25:51;4.60;;;2.67;;
12818;SDS011;6474;53.474;9.894;2022-11-12T00:28:24;4.33;;;2.73;;
12818;SDS011;6474;53.474;9.894;2022-11-12T00:30:54;3.53;;;2.63;;
12818;SDS011;6474;53.474;9.894;2022-11-12T00:33:22;2.37;;;2.23;;
12818;SDS011;6474;53.474;9.894;2022-11-12T00:35:50;2.80;;;2.60;;
12818;SDS011;6474;53.474;9.894;2022-11-12T00:38:17;3.50;;;3.20;;
12818;SDS011;6474;53.474;9.894;2022-11-12T00:40:45;4.23;;;2.43;;
12818;SDS011;6474;53.474;9.894;2022-11-12T00:43:13;3.17;;;2.97;;
12818;SDS011;6474;53.474;9.894;2022-11-12T00:45:41;2.50;;;2.40;;
12818;SDS011;6474;53.474;9.894;2022-11-12T00:48:10;2.70;;;2.50;;
12818;SDS011;6474;53.474;9.894;2022-11-12T00:50:38;3.30;;;3.10;;
12818;SDS011;6474;53.474;9.894;2022-11-12T00:53:05;3.13;;;2.40;;
12818;SDS011;6474;53.474;9.894;2022-11-12T00:55:33;2.70;;;2.50;;
12818;SDS011;6474;53.474;9.894;2022-11-12T00:58:01;6.73;;;3.30;;
12818;SDS011;6474;53.474;9.894;2022-11-12T01:00:29;2.60;;;2.50;;
12818;SDS011;6474;53.474;9.894;2022-11-12T01:02:56;7.37;;;2.70;;
12818;SDS011;6474;53.474;9.894;2022-11-12T01:05:26;4.90;;;3.20;;
12818;SDS011;6474;53.474;9.894;2022-11-12T01:07:54;3.30;;;2.33;;
12818;SDS011;6474;53.474;9.894;2022-11-12T01:10:22;2.60;;;2.50;;
12818;SDS011;6474;53.474;9.894;2022-11-12T01:12:50;3.57;;;2.40;;
12818;SDS011;6474;53.474;9.894;2022-11-12T01:15:17;2.23;;;2.13;;
12818;SDS011;6474;53.474;9.894;2022-11-12T01:17:45;3.10;;;2.90;;
12818;SDS011;6474;53.474;9.894;2022-11-12T01:20:13;3.23;;;2.57;;
12818;SDS011;6474;53.474;9.894;2022-11-12T01:22:42;3.00;;;2.80;;
12818;SDS011;6474;53.474;9.894;2022-11-12T01:25:10;4.70;;;2.73;;
12818;SDS011;6474;53.474;9.894;2022-11-12T01:27:38;2.70;;;2.53;;
12818;SDS011;6474;53.474;9.894;2022-11-12T01:30:06;2.97;;;2.77;;
12818;SDS011;6474;53.474;9.894;2022-11-12T01:32:35;3.23;;;2.97;;
12818;SDS011;6474;53.474;9.894;2022-11-12T01:35:03;3.60;;;2.67;;
12818;SDS011;6474;53.474;9.894;2022-11-12T01:37:31;3.10;;;2.90;;
12818;SDS011;6474;53.474;9.894;2022-11-12T01:40:01;3.37;;;2.63;;
12818;SDS011;6474;53.474;9.894;2022-11-12T01:42:29;2.60;;;2.40;;
12818;SDS011;6474;53.474;9.894;2022-11-12T01:44:58;3.07;;;2.77;;
12818;SDS011;6474;53.474;9.894;2022-11-12T01:47:27;2.83;;;2.60;;
12818;SDS011;6474;53.474;9.894;2022-11-12T01:49:57;6.80;;;2.90;;
12818;SDS011;6474;53.474;9.894;2022-11-12T01:52:32;2.73;;;2.63;;
12818;SDS011;6474;53.474;9.894;2022-11-12T01:55:05;2.70;;;2.50;;
12818;SDS011;6474;53.474;9.894;2022-11-12T01:57:36;3.63;;;3.00;;
12818;SDS011;6474;53.474;9.894;2022-11-12T02:00:08;5.37;;;2.47;;
12818;SDS011;6474;53.474;9.894;2022-11-12T02:02:37;3.20;;;3.07;;
12818;SDS011;6474;53.474;9.894;2022-11-12T02:05:06;3.70;;;2.90;;
12818;SDS011;6474;53.474;9.894;2022-11-12T02:07:36;2.60;;;2.50;;
12818;SDS011;6474;53.474;9.894;2022-11-12T02:10:08;2.70;;;2.60;;
12818;SDS011;6474;53.474;9.894;2022-11-12T02:12:36;3.50;;;2.73;;
12818;SDS011;6474;53.474;9.894;2022-11-12T02:15:22;3.13;;;2.93;;
12818;SDS011;6474;53.474;9.894;2022-11-12T02:17:51;4.70;;;3.17;;
12818;SDS011;6474;53.474;9.894;2022-11-12T02:20:19;8.13;;;3.20;;
12818;SDS011;6474;53.474;9.894;2022-11-12T02:22:48;3.13;;;2.93;;
12818;SDS011;6474;53.474;9.894;2022-11-12T02:25:17;3.50;;;3.23;;
12818;SDS011;6474;53.474;9.894;2022-11-12T02:27:48;2.97;;;2.87;;
12818;SDS011;6474;53.474;9.894;2022-11-12T02:30:22;4.17;;;3.40;;
12818;SDS011;6474;53.474;9.894;2022-11-12T02:32:58;3.23;;;2.90;;
12818;SDS011;6474;53.474;9.894;2022-11-12T02:35:26;3.40;;;3.10;;
12818;SDS011;6474;53.474;9.894;2022-11-12T02:37:55;2.93;;;2.83;;
12818;SDS011;6474;53.474;9.894;2022-11-12T02:40:23;2.90;;;2.80;;
12818;SDS011;6474;53.474;9.894;2022-11-12T02:42:50;4.53;;;2.83;;
12818;SDS011;6474;53.474;9.894;2022-11-12T02:45:18;3.80;;;3.07;;
12818;SDS011;6474;53.474;9.894;2022-11-12T02:47:46;3.23;;;3.00;;
12818;SDS011;6474;53.474;9.894;2022-11-12T02:50:14;3.63;;;2.83;;
12818;SDS011;6474;53.474;9.894;2022-11-12T02:52:42;3.33;;;3.07;;
12818;SDS011;6474;53.474;9.894;2022-11-12T02:55:12;5.93;;;3.33;;
12818;SDS011;6474;53.474;9.894;2022-11-12T02:57:40;3.30;;;3.00;;
12818;SDS011;6474;53.474;9.894;2022-11-12T03:00:09;3.37;;;3.07;;
12818;SDS011;6474;53.474;9.894;2022-11-12T03:02:38;2.83;;;2.67;;
12818;SDS011;6474;53.474;9.894;2022-11-12T03:05:08;3.47;;;3.17;;
12818;SDS011;6474;53.474;9.894;2022-11-12T03:07:37;2.77;;;2.67;;
12818;SDS011;6474;53.474;9.894;2022-11-12T03:10:05;7.10;;;3.40;;
12818;SDS011;6474;53.474;9.894;2022-11-12T03:12:34;6.40;;;3.27;;
12818;SDS011;6474;53.474;9.894;2022-11-12T03:15:02;3.00;;;2.80;;
12818;SDS011;6474;53.474;9.894;2022-11-12T03:17:30;3.80;;;3.40;;
12818;SDS011;6474;53.474;9.894;2022-11-12T03:20:00;3.07;;;2.87;;
12818;SDS011;6474;53.474;9.894;2022-11-12T03:22:28;4.10;;;3.03;;
12818;SDS011;6474;53.474;9.894;2022-11-12T03:24:56;3.93;;;3.70;;
12818;SDS011;6474;53.474;9.894;2022-11-12T03:27:24;4.67;;;3.27;;
12818;SDS011;6474;53.474;9.894;2022-11-12T03:29:53;5.97;;;3.90;;
12818;SDS011;6474;53.474;9.894;2022-11-12T03:32:21;4.30;;;3.30;;
12818;SDS011;6474;53.474;9.894;2022-11-12T03:34:48;3.20;;;3.00;;
12818;SDS011;6474;53.474;9.894;2022-11-12T03:37:20;3.87;;;3.50;;
12818;SDS011;6474;53.474;9.894;2022-11-12T03:39:48;2.90;;;2.73;;
12818;SDS011;6474;53.474;9.894;2022-11-12T03:42:16;8.63;;;3.73;;
12818;SDS011;6474;53.474;9.894;2022-11-12T03:44:44;3.03;;;2.87;;
12818;SDS011;6474;53.474;9.894;2022-11-12T03:47:13;3.47;;;3.17;;
12818;SDS011;6474;53.474;9.894;2022-11-12T03:49:40;3.40;;;3.10;;
12818;SDS011;6474;53.474;9.894;2022-11-12T03:52:08;9.33;;;4.10;;
12818;SDS011;6474;53.474;9.894;2022-11-12T03:54:36;3.83;;;3.53;;
12818;SDS011;6474;53.474;9.894;2022-11-12T03:57:04;4.80;;;3.40;;
12818;SDS011;6474;53.474;9.894;2022-11-12T03:59:32;3.93;;;3.63;;
12818;SDS011;6474;53.474;9.894;2022-11-12T04:01:59;7.47;;;3.20;;
12818;SDS011;6474;53.474;9.894;2022-11-12T04:04:28;4.00;;;3.13;;
12818;SDS011;6474;53.474;9.894;2022-11-12T04:07:10;4.03;;;3.63;;
12818;SDS011;6474;53.474;9.894;2022-11-12T04:09:56;8.87;;;3.30;;
12818;SDS011;6474;53.474;9.894;2022-11-12T04:12:24;3.40;;;3.13;;
12818;SDS011;6474;53.474;9.894;2022-11-12T04:15:09;3.27;;;2.97;;
12818;SDS011;6474;53.474;9.894;2022-11-12T04:17:37;3.53;;;2.97;;
12818;SDS011;6474;53.474;9.894;2022-11-12T04:20:23;3.63;;;3.23;;
12818;SDS011;6474;53.474;9.894;2022-11-12T04:23:08;3.30;;;3.03;;
12818;SDS011;6474;53.474;9.894;2022-11-12T04:25:36;3.10;;;2.90;;
12818;SDS011;6474;53.474;9.894;2022-11-12T04:28:23;4.13;;;3.20;;
12818;SDS011;6474;53.474;9.894;2022-11-12T04:30:51;3.10;;;2.90;;
12818;SDS011;6474;53.474;9.894;2022-11-12T04:33:18;4.93;;;3.03;;
12818;SDS011;6474;53.474;9.894;2022-11-12T04:35:47;3.60;;;3.37;;
12818;SDS011;6474;53.474;9.894;2022-11-12T04:38:15;3.63;;;3.20;;
12818;SDS011;6474;53.474;9.894;2022-11-12T04:40:43;4.57;;;3.33;;
12818;SDS011;6474;53.474;9.894;2022-11-12T04:43:28;4.60;;;4.30;;
12818;SDS011;6474;53.474;9.894;2022-11-12T04:46:13;11.20;;;3.93;;
12818;SDS011;6474;53.474;9.894;2022-11-12T04:48:41;6.23;;;3.20;;
12818;SDS011;6474;53.474;9.894;2022-11-12T04:51:10;3.37;;;3.07;;
12818;SDS011;6474;53.474;9.894;2022-11-12T04:53:52;5.73;;;3.93;;
12818;SDS011;6474;53.474;9.894;2022-11-12T04:56:20;5.87;;;3.33;;
12818;SDS011;6474;53.474;9.894;2022-11-12T04:58:47;4.27;;;3.87;;
12818;SDS011;6474;53.474;9.894;2022-11-12T05:01:15;4.13;;;2.93;;
12818;SDS011;6474;53.474;9.894;2022-11-12T05:03:43;4.63;;;3.17;;
12818;SDS011;6474;53.474;9.894;2022-11-12T05:06:12;4.60;;;3.13;;
12818;SDS011;6474;53.474;9.894;2022-11-12T05:08:54;3.27;;;3.00;;
12818;SDS011;6474;53.474;9.894;2022-11-12T05:11:22;11.80;;;4.10;;
12818;SDS011;6474;53.474;9.894;2022-11-12T05:13:49;3.93;;;3.33;;
12818;SDS011;6474;53.474;9.894;2022-11-12T05:16:17;2.93;;;2.73;;
12818;SDS011;6474;53.474;9.894;2022-11-12T05:18:45;7.23;;;3.47;;
12818;SDS011;6474;53.474;9.894;2022-11-12T05:21:14;5.60;;;3.43;;
12818;SDS011;6474;53.474;9.894;2022-11-12T05:24:04;4.53;;;3.60;;
12818;SDS011;6474;53.474;9.894;2022-11-12T05:26:32;5.00;;;3.03;;
12818;SDS011;6474;53.474;9.894;2022-11-12T05:29:00;3.47;;;3.13;;
12818;SDS011;6474;53.474;9.894;2022-11-12T05:31:33;4.30;;;3.90;;
12818;SDS011;6474;53.474;9.894;2022-11-12T05:34:02;3.60;;;3.30;;
12818;SDS011;6474;53.474;9.894;2022-11-12T05:36:31;5.80;;;3.53;;
12818;SDS011;6474;53.474;9.894;2022-11-12T05:38:59;4.73;;;3.43;;
12818;SDS011;6474;53.474;9.894;2022-11-12T05:41:27;3.77;;;3.47;;
12818;SDS011;6474;53.474;9.894;2022-11-12T05:44:14;6.63;;;3.77;;
12818;SDS011;6474;53.474;9.894;2022-11-12T05:46:42;3.50;;;3.23;;
12818;SDS011;6474;53.474;9.894;2022-11-12T05:49:10;3.77;;;3.47;;
12818;SDS011;6474;53.474;9.894;2022-11-12T05:51:40;6.03;;;3.73;;
12818;SDS011;6474;53.474;9.894;2022-11-12T05:54:08;3.57;;;3.27;;
12818;SDS011;6474;53.474;9.894;2022-11-12T05:56:36;2.73;;;2.63;;
12818;SDS011;6474;53.474;9.894;2022-11-12T05:59:06;8.43;;;2.67;;
12818;SDS011;6474;53.474;9.894;2022-11-12T06:01:35;4.33;;;3.40;;
12818;SDS011;6474;53.474;9.894;2022-11-12T06:04:09;3.70;;;3.40;;
12818;SDS011;6474;53.474;9.894;2022-11-12T06:06:37;4.67;;;3.20;;
12818;SDS011;6474;53.474;9.894;2022-11-12T06:09:07;5.70;;;4.07;;
12818;SDS011;6474;53.474;9.894;2022-11-12T06:11:35;3.37;;;3.00;;
12818;SDS011;6474;53.474;9.894;2022-11-12T06:14:03;2.90;;;2.80;;
12818;SDS011;6474;53.474;9.894;2022-11-12T06:16:32;3.63;;;3.33;;
12818;SDS011;6474;53.474;9.894;2022-11-12T06:19:00;4.30;;;3.77;;
12818;SDS011;6474;53.474;9.894;2022-11-12T06:21:27;3.47;;;3.27;;
12818;SDS011;6474;53.474;9.894;2022-11-12T06:23:57;8.17;;;3.60;;
12818;SDS011;6474;53.474;9.894;2022-11-12T06:26:26;4.50;;;3.70;;
12818;SDS011;6474;53.474;9.894;2022-11-12T06:28:55;3.03;;;2.83;;
12818;SDS011;6474;53.474;9.894;2022-11-12T06:31:23;6.30;;;3.13;;
12818;SDS011;6474;53.474;9.894;2022-11-12T06:33:51;3.00;;;2.80;;
12818;SDS011;6474;53.474;9.894;2022-11-12T06:36:19;4.63;;;2.97;;
12818;SDS011;6474;53.474;9.894;2022-11-12T06:38:46;5.30;;;3.73;;
12818;SDS011;6474;53.474;9.894;2022-11-12T06:41:16;2.90;;;2.80;;
12818;SDS011;6474;53.474;9.894;2022-11-12T06:43:43;11.23;;;3.30;;
12818;SDS011;6474;53.474;9.894;2022-11-12T06:46:12;2.87;;;2.67;;
12818;SDS011;6474;53.474;9.894;2022-11-12T06:48:41;4.80;;;3.70;;
12818;SDS011;6474;53.474;9.894;2022-11-12T06:51:10;3.77;;;3.47;;
12818;SDS011;6474;53.474;9.894;2022-11-12T06:53:41;3.50;;;3.23;;
12818;SDS011;6474;53.474;9.894;2022-11-12T06:56:09;3.60;;;3.30;;
12818;SDS011;6474;53.474;9.894;2022-11-12T06:58:38;5.53;;;3.37;;
12818;SDS011;6474;53.474;9.894;2022-11-12T07:01:07;3.20;;;3.00;;
12818;SDS011;6474;53.474;9.894;2022-11-12T07:03:38;4.73;;;3.03;;
12818;SDS011;6474;53.474;9.894;2022-11-12T07:06:07;3.87;;;3.40;;
12818;SDS011;6474;53.474;9.894;2022-11-12T07:08:37;3.47;;;3.17;;
12818;SDS011;6474;53.474;9.894;2022-11-12T07:11:05;3.40;;;3.10;;
12818;SDS011;6474;53.474;9.894;2022-11-12T07:13:34;6.87;;;3.53;;
12818;SDS011;6474;53.474;9.894;2022-11-12T07:16:04;3.90;;;3.50;;
12818;SDS011;6474;53.474;9.894;2022-11-12T07:18:34;3.97;;;3.63;;
12818;SDS011;6474;53.474;9.894;2022-11-12T07:21:02;4.30;;;3.87;;
12818;SDS011;6474;53.474;9.894;2022-11-12T07:23:34;5.43;;;3.60;;
12818;SDS011;6474;53.474;9.894;2022-11-12T07:26:03;6.63;;;3.90;;
12818;SDS011;6474;53.474;9.894;2022-11-12T07:28:32;4.77;;;3.47;;
12818;SDS011;6474;53.474;9.894;2022-11-12T07:31:01;3.60;;;3.30;;
12818;SDS011;6474;53.474;9.894;2022-11-12T07:33:32;3.60;;;3.40;;
12818;SDS011;6474;53.474;9.894;2022-11-12T07:36:00;3.90;;;3.53;;
12818;SDS011;6474;53.474;9.894;2022-11-12T07:38:30;3.67;;;3.37;;
12818;SDS011;6474;53.474;9.894;2022-11-12T07:41:00;8.70;;;3.30;;
12818;SDS011;6474;53.474;9.894;2022-11-12T07:43:29;13.67;;;4.10;;
12818;SDS011;6474;53.474;9.894;2022-11-12T07:45:57;3.57;;;3.37;;
12818;SDS011;6474;53.474;9.894;2022-11-12T07:48:34;6.33;;;3.80;;
12818;SDS011;6474;53.474;9.894;2022-11-12T07:51:02;4.00;;;3.17;;
12818;SDS011;6474;53.474;9.894;2022-11-12T07:53:32;6.70;;;4.80;;
12818;SDS011;6474;53.474;9.894;2022-11-12T07:56:02;10.73;;;4.50;;
12818;SDS011;6474;53.474;9.894;2022-11-12T07:58:32;4.23;;;3.77;;
12818;SDS011;6474;53.474;9.894;2022-11-12T08:01:05;8.27;;;4.20;;
12818;SDS011;6474;53.474;9.894;2022-11-12T08:03:36;3.97;;;3.63;;
12818;SDS011;6474;53.474;9.894;2022-11-12T08:06:04;4.87;;;4.43;;
12818;SDS011;6474;53.474;9.894;2022-11-12T08:08:32;3.83;;;3.53;;
12818;SDS011;6474;53.474;9.894;2022-11-12T08:11:02;14.17;;;4.50;;
12818;SDS011;6474;53.474;9.894;2022-11-12T08:13:30;4.03;;;3.60;;
12818;SDS011;6474;53.474;9.894;2022-11-12T08:15:58;6.57;;;3.97;;
12818;SDS011;6474;53.474;9.894;2022-11-12T08:18:26;5.13;;;3.80;;
12818;SDS011;6474;53.474;9.894;2022-11-12T08:20:59;3.80;;;3.50;;
12818;SDS011;6474;53.474;9.894;2022-11-12T08:23:27;8.10;;;4.40;;
12818;SDS011;6474;53.474;9.894;2022-11-12T08:25:56;3.93;;;3.63;;
12818;SDS011;6474;53.474;9.894;2022-11-12T08:28:25;5.33;;;3.97;;
12818;SDS011;6474;53.474;9.894;2022-11-12T08:30:55;4.20;;;3.27;;
12818;SDS011;6474;53.474;9.894;2022-11-12T08:33:23;4.27;;;3.57;;
12818;SDS011;6474;53.474;9.894;2022-11-12T08:35:50;4.83;;;4.07;;
12818;SDS011;6474;53.474;9.894;2022-11-12T08:38:19;3.50;;;3.10;;
12818;SDS011;6474;53.474;9.894;2022-11-12T08:40:47;10.10;;;4.13;;
12818;SDS011;6474;53.474;9.894;2022-11-12T08:43:15;5.60;;;3.50;;
12818;SDS011;6474;53.474;9.894;2022-11-12T08:45:44;6.90;;;3.70;;
12818;SDS011;6474;53.474;9.894;2022-11-12T08:48:13;3.87;;;3.57;;
12818;SDS011;6474;53.474;9.894;2022-11-12T08:50:41;6.33;;;3.70;;
12818;SDS011;6474;53.474;9.894;2022-11-12T08:53:10;4.90;;;4.40;;
12818;SDS011;6474;53.474;9.894;2022-11-12T08:55:42;5.40;;;4.03;;
12818;SDS011;6474;53.474;9.894;2022-11-12T08:58:09;13.10;;;3.70;;
12818;SDS011;6474;53.474;9.894;2022-11-12T09:00:41;4.63;;;3.43;;
12818;SDS011;6474;53.474;9.894;2022-11-12T09:03:12;3.47;;;3.20;;
12818;SDS011;6474;53.474;9.894;2022-11-12T09:05:41;4.40;;;4.00;;
12818;SDS011;6474;53.474;9.894;2022-11-12T09:08:09;5.33;;;3.97;;
12818;SDS011;6474;53.474;9.894;2022-11-12T09:10:39;3.53;;;3.23;;
12818;SDS011;6474;53.474;9.894;2022-11-12T09:13:08;6.00;;;4.77;;
12818;SDS011;6474;53.474;9.894;2022-11-12T09:15:37;8.03;;;4.57;;
12818;SDS011;6474;53.474;9.894;2022-11-12T09:18:05;3.90;;;3.60;;
12818;SDS011;6474;53.474;9.894;2022-11-12T09:20:36;10.00;;;4.03;;
12818;SDS011;6474;53.474;9.894;2022-11-12T09:23:05;7.33;;;4.17;;
12818;SDS011;6474;53.474;9.894;2022-11-12T09:25:35;5.30;;;4.00;;
12818;SDS011;6474;53.474;9.894;2022-11-12T09:28:08;5.53;;;4.17;;
12818;SDS011;6474;53.474;9.894;2022-11-12T09:30:40;5.07;;;4.57;;
12818;SDS011;6474;53.474;9.894;2022-11-12T09:33:09;7.70;;;4.70;;
12818;SDS011;6474;53.474;9.894;2022-11-12T09:35:36;5.93;;;4.40;;
12818;SDS011;6474;53.474;9.894;2022-11-12T09:38:04;13.73;;;4.83;;
12818;SDS011;6474;53.474;9.894;2022-11-12T09:40:38;7.80;;;4.60;;
12818;SDS011;6474;53.474;9.894;2022-11-12T09:43:19;4.50;;;4.10;;
12818;SDS011;6474;53.474;9.894;2022-11-12T09:45:52;9.67;;;5.07;;
12818;SDS011;6474;53.474;9.894;2022-11-12T09:48:45;4.93;;;4.23;;
12818;SDS011;6474;53.474;9.894;2022-11-12T09:51:20;4.10;;;3.77;;
12818;SDS011;6474;53.474;9.894;2022-11-12T09:53:53;4.37;;;3.57;;
12818;SDS011;6474;53.474;9.894;2022-11-12T09:56:22;7.80;;;4.10;;
12818;SDS011;6474;53.474;9.894;2022-11-12T09:58:53;6.13;;;3.80;;
12818;SDS011;6474;53.474;9.894;2022-11-12T10:01:22;5.17;;;4.13;;
12818;SDS011;6474;53.474;9.894;2022-11-12T10:04:00;6.70;;;4.70;;
12818;SDS011;6474;53.474;9.894;2022-11-12T10:06:45;4.27;;;3.93;;
12818;SDS011;6474;53.474;9.894;2022-11-12T10:09:22;9.70;;;4.13;;
12818;SDS011;6474;53.474;9.894;2022-11-12T10:11:57;9.23;;;4.37;;
12818;SDS011;6474;53.474;9.894;2022-11-12T10:14:51;4.33;;;4.03;;
12818;SDS011;6474;53.474;9.894;2022-11-12T10:18:06;3.60;;;3.30;;
12818;SDS011;6474;53.474;9.894;2022-11-12T10:20:41;5.87;;;3.87;;
12818;SDS011;6474;53.474;9.894;2022-11-12T10:23:15;4.40;;;4.00;;
12818;SDS011;6474;53.474;9.894;2022-11-12T10:25:45;4.20;;;3.80;;
12818;SDS011;6474;53.474;9.894;2022-11-12T10:28:21;5.93;;;3.10;;
12818;SDS011;6474;53.474;9.894;2022-11-12T10:30:56;3.87;;;3.40;;
12818;SDS011;6474;53.474;9.894;2022-11-12T10:33:29;4.57;;;3.80;;
12818;SDS011;6474;53.474;9.894;2022-11-12T10:36:04;3.83;;;3.00;;
12818;SDS011;6474;53.474;9.894;2022-11-12T10:38:53;4.00;;;3.50;;
12818;SDS011;6474;53.474;9.894;2022-11-12T10:41:23;3.53;;;3.23;;
12818;SDS011;6474;53.474;9.894;2022-11-12T10:43:54;3.40;;;2.97;;
12818;SDS011;6474;53.474;9.894;2022-11-12T10:46:25;3.17;;;3.00;;
12818;SDS011;6474;53.474;9.894;2022-11-12T10:48:56;3.57;;;3.13;;
12818;SDS011;6474;53.474;9.894;2022-11-12T10:51:28;7.63;;;3.43;;
12818;SDS011;6474;53.474;9.894;2022-11-12T10:53:57;3.53;;;3.20;;
12818;SDS011;6474;53.474;9.894;2022-11-12T10:56:27;4.40;;;4.00;;
12818;SDS011;6474;53.474;9.894;2022-11-12T10:59:07;5.00;;;3.50;;
12818;SDS011;6474;53.474;9.894;2022-11-12T11:01:38;3.30;;;3.10;;
12818;SDS011;6474;53.474;9.894;2022-11-12T11:04:14;3.67;;;3.33;;
12818;SDS011;6474;53.474;9.894;2022-11-12T11:06:45;3.93;;;3.40;;
12818;SDS011;6474;53.474;9.894;2022-11-12T11:09:14;7.40;;;2.77;;
12818;SDS011;6474;53.474;9.894;2022-11-12T11:11:49;3.57;;;3.20;;
12818;SDS011;6474;53.474;9.894;2022-11-12T11:14:28;3.20;;;3.00;;
12818;SDS011;6474;53.474;9.894;2022-11-12T11:16:59;4.70;;;3.80;;
12818;SDS011;6474;53.474;9.894;2022-11-12T11:19:35;3.20;;;2.90;;
12818;SDS011;6474;53.474;9.894;2022-11-12T11:22:18;3.30;;;3.10;;
12818;SDS011;6474;53.474;9.894;2022-11-12T11:25:07;3.10;;;2.83;;
12818;SDS011;6474;53.474;9.894;2022-11-12T11:27:45;4.33;;;3.47;;
12818;SDS011;6474;53.474;9.894;2022-11-12T11:30:23;6.80;;;3.50;;
12818;SDS011;6474;53.474;9.894;2022-11-12T11:36:00;3.50;;;3.17;;
12818;SDS011;6474;53.474;9.894;2022-11-12T11:38:42;3.00;;;2.87;;
12818;SDS011;6474;53.474;9.894;2022-11-12T11:44:14;2.93;;;2.73;;
12818;SDS011;6474;53.474;9.894;2022-11-12T11:46:55;2.50;;;2.20;;
12818;SDS011;6474;53.474;9.894;2022-11-12T11:49:40;2.33;;;2.23;;
12818;SDS011;6474;53.474;9.894;2022-11-12T11:52:31;2.60;;;2.40;;
12818;SDS011;6474;53.474;9.894;2022-11-12T11:55:11;2.80;;;2.60;;
12818;SDS011;6474;53.474;9.894;2022-11-12T11:57:54;2.80;;;2.60;;
12818;SDS011;6474;53.474;9.894;2022-11-12T12:00:28;2.90;;;2.57;;
12818;SDS011;6474;53.474;9.894;2022-11-12T12:03:07;3.40;;;2.87;;
12818;SDS011;6474;53.474;9.894;2022-11-12T12:05:49;2.73;;;2.63;;
12818;SDS011;6474;53.474;9.894;2022-11-12T12:08:37;2.63;;;2.53;;
12818;SDS011;6474;53.474;9.894;2022-11-12T12:11:17;2.93;;;2.73;;
12818;SDS011;6474;53.474;9.894;2022-11-12T12:13:53;2.47;;;2.37;;
12818;SDS011;6474;53.474;9.894;2022-11-12T12:16:33;2.53;;;2.43;;
12818;SDS011;6474;53.474;9.894;2022-11-12T12:19:15;2.30;;;2.20;;
12818;SDS011;6474;53.474;9.894;2022-11-12T12:21:55;3.23;;;2.93;;
12818;SDS011;6474;53.474;9.894;2022-11-12T12:24:26;2.00;;;2.00;;
12818;SDS011;6474;53.474;9.894;2022-11-12T12:26:57;2.90;;;2.70;;
12818;SDS011;6474;53.474;9.894;2022-11-12T12:29:30;3.57;;;3.37;;
12818;SDS011;6474;53.474;9.894;2022-11-12T12:32:04;3.20;;;2.90;;
12818;SDS011;6474;53.474;9.894;2022-11-12T12:34:37;2.87;;;2.77;;
12818;SDS011;6474;53.474;9.894;2022-11-12T12:37:11;3.90;;;2.73;;
12818;SDS011;6474;53.474;9.894;2022-11-12T12:39:47;2.83;;;2.63;;
12818;SDS011;6474;53.474;9.894;2022-11-12T12:42:21;3.87;;;2.97;;
12818;SDS011;6474;53.474;9.894;2022-11-12T12:44:53;2.93;;;2.73;;
12818;SDS011;6474;53.474;9.894;2022-11-12T12:47:31;2.43;;;2.27;;
12818;SDS011;6474;53.474;9.894;2022-11-12T12:50:02;3.40;;;2.87;;
12818;SDS011;6474;53.474;9.894;2022-11-12T12:55:32;2.97;;;2.77;;
12818;SDS011;6474;53.474;9.894;2022-11-12T12:58:02;3.40;;;2.70;;
12818;SDS011;6474;53.474;9.894;2022-11-12T13:00:32;3.47;;;2.83;;
12818;SDS011;6474;53.474;9.894;2022-11-12T13:03:03;2.63;;;2.43;;
12818;SDS011;6474;53.474;9.894;2022-11-12T13:05:32;5.33;;;3.13;;
12818;SDS011;6474;53.474;9.894;2022-11-12T13:08:01;4.00;;;2.90;;
12818;SDS011;6474;53.474;9.894;2022-11-12T13:13:31;3.87;;;2.70;;
12818;SDS011;6474;53.474;9.894;2022-11-12T13:16:00;3.83;;;3.23;;
12818;SDS011;6474;53.474;9.894;2022-11-12T13:21:25;3.33;;;2.43;;
12818;SDS011;6474;53.474;9.894;2022-11-12T13:23:55;2.93;;;2.80;;
12818;SDS011;6474;53.474;9.894;2022-11-12T13:32:27;2.77;;;2.63;;
12818;SDS011;6474;53.474;9.894;2022-11-12T13:35:18;3.03;;;2.83;;
12818;SDS011;6474;53.474;9.894;2022-11-12T13:38:00;2.83;;;2.73;;
12818;SDS011;6474;53.474;9.894;2022-11-12T13:40:45;3.20;;;3.00;;
12818;SDS011;6474;53.474;9.894;2022-11-12T13:43:17;3.27;;;2.97;;
12818;SDS011;6474;53.474;9.894;2022-11-12T13:45:58;5.33;;;3.40;;
12818;SDS011;6474;53.474;9.894;2022-11-12T13:48:37;2.93;;;2.73;;
12818;SDS011;6474;53.474;9.894;2022-11-12T13:51:11;2.67;;;2.47;;
12818;SDS011;6474;53.474;9.894;2022-11-12T13:53:42;2.50;;;2.40;;
12818;SDS011;6474;53.474;9.894;2022-11-12T13:56:11;3.17;;;2.97;;
12818;SDS011;6474;53.474;9.894;2022-11-12T13:58:52;2.57;;;2.47;;
12818;SDS011;6474;53.474;9.894;2022-11-12T14:01:21;2.37;;;2.00;;
12818;SDS011;6474;53.474;9.894;2022-11-12T14:03:51;3.33;;;2.87;;
12818;SDS011;6474;53.474;9.894;2022-11-12T14:06:21;4.23;;;3.60;;
12818;SDS011;6474;53.474;9.894;2022-11-12T14:11:59;3.73;;;3.43;;
12818;SDS011;6474;53.474;9.894;2022-11-12T14:14:53;3.37;;;3.13;;
12818;SDS011;6474;53.474;9.894;2022-11-12T14:17:36;2.87;;;2.77;;
12818;SDS011;6474;53.474;9.894;2022-11-12T14:20:18;3.53;;;2.93;;
12818;SDS011;6474;53.474;9.894;2022-11-12T14:22:55;3.77;;;3.47;;
12818;SDS011;6474;53.474;9.894;2022-11-12T14:25:29;3.87;;;2.80;;
12818;SDS011;6474;53.474;9.894;2022-11-12T14:27:59;3.00;;;2.80;;
12818;SDS011;6474;53.474;9.894;2022-11-12T14:30:28;3.30;;;3.00;;
12818;SDS011;6474;53.474;9.894;2022-11-12T14:32:57;2.30;;;2.20;;
12818;SDS011;6474;53.474;9.894;2022-11-12T14:35:28;3.23;;;2.93;;
12818;SDS011;6474;53.474;9.894;2022-11-12T14:38:02;3.27;;;3.10;;
12818;SDS011;6474;53.474;9.894;2022-11-12T14:40:32;3.07;;;2.77;;
12818;SDS011;6474;53.474;9.894;2022-11-12T14:43:05;3.00;;;2.80;;
12818;SDS011;6474;53.474;9.894;2022-11-12T14:45:50;2.87;;;2.67;;
12818;SDS011;6474;53.474;9.894;2022-11-12T14:48:20;2.07;;;2.03;;
12818;SDS011;6474;53.474;9.894;2022-11-12T14:50:48;3.00;;;2.80;;
12818;SDS011;6474;53.474;9.894;2022-11-12T14:53:21;4.60;;;2.87;;
12818;SDS011;6474;53.474;9.894;2022-11-12T14:55:53;2.50;;;2.30;;
12818;SDS011;6474;53.474;9.894;2022-11-12T14:58:24;3.23;;;3.03;;
12818;SDS011;6474;53.474;9.894;2022-11-12T15:00:53;3.73;;;2.67;;
12818;SDS011;6474;53.474;9.894;2022-11-12T15:03:23;2.57;;;2.47;;
12818;SDS011;6474;53.474;9.894;2022-11-12T15:05:57;2.93;;;2.43;;
12818;SDS011;6474;53.474;9.894;2022-11-12T15:08:34;5.33;;;2.73;;
12818;SDS011;6474;53.474;9.894;2022-11-12T15:11:13;2.47;;;2.37;;
12818;SDS011;6474;53.474;9.894;2022-11-12T15:13:48;10.60;;;4.33;;
12818;SDS011;6474;53.474;9.894;2022-11-12T15:16:20;7.00;;;3.80;;
12818;SDS011;6474;53.474;9.894;2022-11-12T15:18:57;2.80;;;2.60;;
12818;SDS011;6474;53.474;9.894;2022-11-12T15:21:45;3.50;;;3.27;;
12818;SDS011;6474;53.474;9.894;2022-11-12T15:24:15;6.43;;;2.40;;
12818;SDS011;6474;53.474;9.894;2022-11-12T15:26:45;2.83;;;2.60;;
12818;SDS011;6474;53.474;9.894;2022-11-12T15:29:24;2.53;;;2.43;;
12818;SDS011;6474;53.474;9.894;2022-11-12T15:31:54;2.53;;;2.43;;
12818;SDS011;6474;53.474;9.894;2022-11-12T15:34:25;3.10;;;2.90;;
12818;SDS011;6474;53.474;9.894;2022-11-12T15:36:59;2.63;;;2.53;;
12818;SDS011;6474;53.474;9.894;2022-11-12T15:39:30;4.80;;;2.63;;
12818;SDS011;6474;53.474;9.894;2022-11-12T15:42:01;2.67;;;2.57;;
12818;SDS011;6474;53.474;9.894;2022-11-12T15:44:34;6.30;;;3.90;;
12818;SDS011;6474;53.474;9.894;2022-11-12T15:47:03;3.43;;;3.13;;
12818;SDS011;6474;53.474;9.894;2022-11-12T15:49:31;3.17;;;2.80;;
12818;SDS011;6474;53.474;9.894;2022-11-12T15:52:00;3.70;;;2.50;;